sensor_id;sensor_type;location;lat;lon;timestamp;pressure;altitude;pressure_sealevel;temperature;humidity
12172;BME280;6149;52.418;13.668;2023-03-03T00:01:08;101887.34;;;-0.63;100.00
12172;BME280;6149;52.418;13.668;2023-03-03T00:03:35;101890.13;;;-0.51;100.00
12172;BME280;6149;52.418;13.668;2023-03-03T00:06:03;101896.19;;;-0.50;100.00
12172;BME280;6149;52.418;13.668;2023-03-03T00:08:30;101890.09;;;-0.52;100.00
12172;BME280;6149;52.418;13.668;2023-03-03T00:10:57;101897.06;;;-0.50;100.00
12172;BME280;6149;52.418;13.668;2023-03-03T00:13:27;101897.03;;;-0.53;100.00
12172;BME280;6149;52.418;13.668;2023-03-03T00:16:10;101896.88;;;-0.63;100.00
12172;BME280;6149;52.418;13.668;2023-03-03T00:18:41;101902.94;;;-0.63;100.00
12172;BME280;6149;52.418;13.668;2023-03-03T00:21:21;101900.50;;;-0.52;100.00
12172;BME280;6149;52.418;13.668;2023-03-03T00:23:54;101908.94;;;-0.67;100.00
12172;BME280;6149;52.418;13.668;2023-03-03T00:26:28;101896.78;;;-0.70;100.00
12172;BME280;6149;52.418;13.668;2023-03-03T00:28:58;101893.38;;;-0.65;100.00
12172;BME280;6149;52.418;13.668;2023-03-03T00:31:30;101894.22;;;-0.68;100.00
12172;BME280;6149;52.418;13.668;2023-03-03T00:34:10;101890.72;;;-0.70;100.00
12172;BME280;6149;52.418;13.668;2023-03-03T00:36:48;101891.59;;;-0.70;100.00
12172;BME280;6149;52.418;13.668;2023-03-03T00:39:24;101878.59;;;-0.71;100.00
12172;BME280;6149;52.418;13.668;2023-03-03T00:41:52;101873.38;;;-0.73;100.00
12172;BME280;6149;52.418;13.668;2023-03-03T00:44:32;101873.38;;;-0.73;100.00
12172;BME280;6149;52.418;13.668;2023-03-03T00:47:22;101863.00;;;-0.71;100.00
12172;BME280;6149;52.418;13.668;2023-03-03T00:49:51;101872.53;;;-0.70;100.00
12172;BME280;6149;52.418;13.668;2023-03-03T00:52:20;101869.97;;;-0.69;100.00
12172;BME280;6149;52.418;13.668;2023-03-03T00:54:46;101867.56;;;-0.53;100.00
12172;BME280;6149;52.418;13.668;2023-03-03T00:57:13;101864.22;;;-0.45;100.00
12172;BME280;6149;52.418;13.668;2023-03-03T00:59:39;101857.97;;;-0.60;100.00
12172;BME280;6149;52.418;13.668;2023-03-03T01:02:06;101862.22;;;-0.65;100.00
12172;BME280;6149;52.418;13.668;2023-03-03T01:04:34;101857.03;;;-0.65;100.00
12172;BME280;6149;52.418;13.668;2023-03-03T01:07:00;101860.50;;;-0.65;100.00
12172;BME280;6149;52.418;13.668;2023-03-03T01:09:27;101854.56;;;-0.55;100.00
12172;BME280;6149;52.418;13.668;2023-03-03T01:11:54;101853.63;;;-0.60;100.00
12172;BME280;6149;52.418;13.668;2023-03-03T01:14:21;101850.19;;;-0.59;100.00
12172;BME280;6149;52.418;13.668;2023-03-03T01:16:47;101851.00;;;-0.61;100.00
12172;BME280;6149;52.418;13.668;2023-03-03T01:19:14;101851.88;;;-0.61;100.00
12172;BME280;6149;52.418;13.668;2023-03-03T01:21:42;101852.75;;;-0.60;100.00
12172;BME280;6149;52.418;13.668;2023-03-03T01:24:08;101851.00;;;-0.61;100.00
12172;BME280;6149;52.418;13.668;2023-03-03T01:26:35;101850.16;;;-0.62;100.00
12172;BME280;6149;52.418;13.668;2023-03-03T01:29:01;101829.44;;;-0.56;100.00
12172;BME280;6149;52.418;13.668;2023-03-03T01:31:28;101836.31;;;-0.59;100.00
12172;BME280;6149;52.418;13.668;2023-03-03T01:33:54;101843.22;;;-0.61;100.00
12172;BME280;6149;52.418;13.668;2023-03-03T01:36:24;101840.63;;;-0.61;100.00
12172;BME280;6149;52.418;13.668;2023-03-03T01:38:53;101845.00;;;-0.57;100.00
12172;BME280;6149;52.418;13.668;2023-03-03T01:41:20;101826.81;;;-0.59;100.00
12172;BME280;6149;52.418;13.668;2023-03-03T01:43:48;101817.34;;;-0.55;100.00
12172;BME280;6149;52.418;13.668;2023-03-03T01:49:23;101819.00;;;-0.60;100.00
12172;BME280;6149;52.418;13.668;2023-03-03T01:51:54;101823.34;;;-0.59;100.00
12172;BME280;6149;52.418;13.668;2023-03-03T01:54:27;101825.03;;;-0.61;100.00
12172;BME280;6149;52.418;13.668;2023-03-03T01:56:58;101823.34;;;-0.59;100.00
12172;BME280;6149;52.418;13.668;2023-03-03T01:59:28;101827.59;;;-0.64;100.00
12172;BME280;6149;52.418;13.668;2023-03-03T02:01:57;101828.41;;;-0.69;100.00
12172;BME280;6149;52.418;13.668;2023-03-03T02:04:25;101824.94;;;-0.71;100.00
12172;BME280;6149;52.418;13.668;2023-03-03T02:06:56;101829.22;;;-0.73;100.00
12172;BME280;6149;52.418;13.668;2023-03-03T02:09:33;101817.13;;;-0.72;100.00
12172;BME280;6149;52.418;13.668;2023-03-03T02:12:08;101823.19;;;-0.72;100.00
12172;BME280;6149;52.418;13.668;2023-03-03T02:14:38;101827.56;;;-0.68;100.00
12172;BME280;6149;52.418;13.668;2023-03-03T02:17:04;101826.69;;;-0.68;100.00
12172;BME280;6149;52.418;13.668;2023-03-03T02:19:35;101832.75;;;-0.68;100.00
12172;BME280;6149;52.418;13.668;2023-03-03T02:22:05;101834.47;;;-0.68;100.00
12172;BME280;6149;52.418;13.668;2023-03-03T02:24:36;101846.63;;;-0.65;100.00
12172;BME280;6149;52.418;13.668;2023-03-03T02:27:07;101841.47;;;-0.64;100.00
12172;BME280;6149;52.418;13.668;2023-03-03T02:29:34;101830.19;;;-0.66;100.00
12172;BME280;6149;52.418;13.668;2023-03-03T02:32:00;101828.41;;;-0.69;100.00
12172;BME280;6149;52.418;13.668;2023-03-03T02:34:27;101835.34;;;-0.68;100.00
12172;BME280;6149;52.418;13.668;2023-03-03T02:36:53;101841.47;;;-0.64;100.00
12172;BME280;6149;52.418;13.668;2023-03-03T02:39:22;101844.94;;;-0.62;100.00
12172;BME280;6149;52.418;13.668;2023-03-03T02:41:53;101839.75;;;-0.63;100.00
12172;BME280;6149;52.418;13.668;2023-03-03T02:44:27;101839.75;;;-0.63;100.00
12172;BME280;6149;52.418;13.668;2023-03-03T02:46:56;101826.81;;;-0.59;100.00
12172;BME280;6149;52.418;13.668;2023-03-03T02:49:24;101825.94;;;-0.59;100.00
12172;BME280;6149;52.418;13.668;2023-03-03T02:51:53;101834.59;;;-0.59;100.00
12172;BME280;6149;52.418;13.668;2023-03-03T02:54:21;101825.09;;;-0.58;100.00
12172;BME280;6149;52.418;13.668;2023-03-03T02:56:49;101821.66;;;-0.56;100.00
12172;BME280;6149;52.418;13.668;2023-03-03T02:59:16;101838.94;;;-0.58;100.00
12172;BME280;6149;52.418;13.668;2023-03-03T03:01:45;101829.44;;;-0.57;100.00
12172;BME280;6149;52.418;13.668;2023-03-03T03:04:14;101817.28;;;-0.58;100.00
12172;BME280;6149;52.418;13.668;2023-03-03T03:06:42;101822.53;;;-0.55;100.00
12172;BME280;6149;52.418;13.668;2023-03-03T03:09:11;101828.59;;;-0.55;100.00
12172;BME280;6149;52.418;13.668;2023-03-03T03:11:38;101829.47;;;-0.54;100.00
12172;BME280;6149;52.418;13.668;2023-03-03T03:14:07;101845.94;;;-0.54;100.00
12172;BME280;6149;52.418;13.668;2023-03-03T03:16:34;101841.56;;;-0.56;100.00
12172;BME280;6149;52.418;13.668;2023-03-03T03:19:03;101840.69;;;-0.57;100.00
12172;BME280;6149;52.418;13.668;2023-03-03T03:21:30;101843.31;;;-0.55;100.00
12172;BME280;6149;52.418;13.668;2023-03-03T03:23:57;101840.69;;;-0.57;100.00
12172;BME280;6149;52.418;13.668;2023-03-03T03:26:24;101853.69;;;-0.55;100.00
12172;BME280;6149;52.418;13.668;2023-03-03T03:28:51;101863.25;;;-0.53;100.00
12172;BME280;6149;52.418;13.668;2023-03-03T03:31:19;101862.31;;;-0.58;100.00
12172;BME280;6149;52.418;13.668;2023-03-03T03:33:46;101851.06;;;-0.58;100.00
12172;BME280;6149;52.418;13.668;2023-03-03T03:36:14;101856.31;;;-0.54;100.00
12172;BME280;6149;52.418;13.668;2023-03-03T03:38:41;101847.66;;;-0.54;100.00
12172;BME280;6149;52.418;13.668;2023-03-03T03:41:08;101856.31;;;-0.54;100.00
12172;BME280;6149;52.418;13.668;2023-03-03T03:43:34;101858.09;;;-0.51;100.00
12172;BME280;6149;52.418;13.668;2023-03-03T03:46:01;101862.44;;;-0.49;100.00
12172;BME280;6149;52.418;13.668;2023-03-03T03:48:27;101865.91;;;-0.48;100.00
12172;BME280;6149;52.418;13.668;2023-03-03T03:50:54;101859.00;;;-0.46;100.00
12172;BME280;6149;52.418;13.668;2023-03-03T03:53:22;101846.88;;;-0.47;100.00
12172;BME280;6149;52.418;13.668;2023-03-03T03:55:48;101836.47;;;-0.47;100.00
12172;BME280;6149;52.418;13.668;2023-03-03T03:58:16;101844.28;;;-0.46;100.00
12172;BME280;6149;52.418;13.668;2023-03-03T04:00:46;101840.00;;;-0.44;100.00
12172;BME280;6149;52.418;13.668;2023-03-03T04:03:12;101833.94;;;-0.43;100.00
12172;BME280;6149;52.418;13.668;2023-03-03T04:05:39;101825.31;;;-0.37;100.00
12172;BME280;6149;52.418;13.668;2023-03-03T04:08:06;101814.94;;;-0.37;100.00
12172;BME280;6149;52.418;13.668;2023-03-03T04:10:34;101815.78;;;-0.37;100.00
12172;BME280;6149;52.418;13.668;2023-03-03T04:13:01;101818.41;;;-0.37;100.00
12172;BME280;6149;52.418;13.668;2023-03-03T04:15:28;101817.53;;;-0.37;100.00
12172;BME280;6149;52.418;13.668;2023-03-03T04:17:54;101813.19;;;-0.40;100.00
12172;BME280;6149;52.418;13.668;2023-03-03T04:20:21;101813.22;;;-0.38;100.00
12172;BME280;6149;52.418;13.668;2023-03-03T04:22:48;101800.22;;;-0.40;100.00
12172;BME280;6149;52.418;13.668;2023-03-03T04:25:15;101798.47;;;-0.39;100.00
12172;BME280;6149;52.418;13.668;2023-03-03T04:27:44;101816.69;;;-0.38;100.00
12172;BME280;6149;52.418;13.668;2023-03-03T04:30:12;101802.81;;;-0.38;100.00
12172;BME280;6149;52.418;13.668;2023-03-03T04:32:40;101804.53;;;-0.37;100.00
12172;BME280;6149;52.418;13.668;2023-03-03T04:35:08;101814.94;;;-0.36;100.00
12172;BME280;6149;52.418;13.668;2023-03-03T04:37:35;101814.09;;;-0.35;100.00
12172;BME280;6149;52.418;13.668;2023-03-03T04:40:03;101806.28;;;-0.35;100.00
12172;BME280;6149;52.418;13.668;2023-03-03T04:42:31;101808.09;;;-0.29;100.00
12172;BME280;6149;52.418;13.668;2023-03-03T04:44:59;101795.94;;;-0.31;100.00
12172;BME280;6149;52.418;13.668;2023-03-03T04:47:25;101801.16;;;-0.30;100.00
12172;BME280;6149;52.418;13.668;2023-03-03T04:49:52;101804.59;;;-0.32;100.00
12172;BME280;6149;52.418;13.668;2023-03-03T04:52:18;101821.06;;;-0.32;100.00
12172;BME280;6149;52.418;13.668;2023-03-03T04:54:45;101816.72;;;-0.31;100.00
12172;BME280;6149;52.418;13.668;2023-03-03T04:57:12;101812.41;;;-0.31;100.00
12172;BME280;6149;52.418;13.668;2023-03-03T04:59:38;101804.63;;;-0.29;100.00
12172;BME280;6149;52.418;13.668;2023-03-03T05:02:06;101806.34;;;-0.31;100.00
12172;BME280;6149;52.418;13.668;2023-03-03T05:04:33;101808.03;;;-0.34;100.00
12172;BME280;6149;52.418;13.668;2023-03-03T05:07:00;101801.13;;;-0.31;100.00
12172;BME280;6149;52.418;13.668;2023-03-03T05:09:27;101805.50;;;-0.29;100.00
12172;BME280;6149;52.418;13.668;2023-03-03T05:11:53;101801.22;;;-0.24;100.00
12172;BME280;6149;52.418;13.668;2023-03-03T05:14:20;101789.91;;;-0.27;100.00
12172;BME280;6149;52.418;13.668;2023-03-03T05:16:47;101793.38;;;-0.28;100.00
12172;BME280;6149;52.418;13.668;2023-03-03T05:19:15;101800.25;;;-0.32;100.00
12172;BME280;6149;52.418;13.668;2023-03-03T05:21:41;101797.72;;;-0.26;100.00
12172;BME280;6149;52.418;13.668;2023-03-03T05:24:08;101797.72;;;-0.27;100.00
12172;BME280;6149;52.418;13.668;2023-03-03T05:26:34;101802.94;;;-0.24;100.00
12172;BME280;6149;52.418;13.668;2023-03-03T05:29:01;101795.94;;;-0.30;100.00
12172;BME280;6149;52.418;13.668;2023-03-03T05:31:28;101806.31;;;-0.33;100.00
12172;BME280;6149;52.418;13.668;2023-03-03T05:33:54;101802.00;;;-0.32;100.00
12172;BME280;6149;52.418;13.668;2023-03-03T05:36:22;101807.19;;;-0.32;100.00
12172;BME280;6149;52.418;13.668;2023-03-03T05:38:49;101802.84;;;-0.34;100.00
12172;BME280;6149;52.418;13.668;2023-03-03T05:41:15;101810.69;;;-0.30;100.00
12172;BME280;6149;52.418;13.668;2023-03-03T05:43:42;101815.91;;;-0.26;100.00
12172;BME280;6149;52.418;13.668;2023-03-03T05:46:08;101818.50;;;-0.29;100.00
12172;BME280;6149;52.418;13.668;2023-03-03T05:48:35;101821.00;;;-0.40;100.00
12172;BME280;6149;52.418;13.668;2023-03-03T05:51:02;101833.94;;;-0.43;100.00
12172;BME280;6149;52.418;13.668;2023-03-03T05:53:30;101843.44;;;-0.46;100.00
12172;BME280;6149;52.418;13.668;2023-03-03T05:55:57;101847.72;;;-0.50;100.00
12172;BME280;6149;52.418;13.668;2023-03-03T05:58:23;101832.97;;;-0.52;100.00
12172;BME280;6149;52.418;13.668;2023-03-03T06:00:50;101843.31;;;-0.54;100.00
12172;BME280;6149;52.418;13.668;2023-03-03T06:03:16;101833.78;;;-0.56;100.00
12172;BME280;6149;52.418;13.668;2023-03-03T06:05:43;101838.13;;;-0.54;100.00
12172;BME280;6149;52.418;13.668;2023-03-03T06:08:09;101842.50;;;-0.50;100.00
12172;BME280;6149;52.418;13.668;2023-03-03T06:10:37;101841.59;;;-0.55;100.00
12172;BME280;6149;52.418;13.668;2023-03-03T06:13:04;101845.94;;;-0.52;100.00
12172;BME280;6149;52.418;13.668;2023-03-03T06:15:30;101846.81;;;-0.52;100.00
12172;BME280;6149;52.418;13.668;2023-03-03T06:17:57;101845.06;;;-0.53;100.00
12172;BME280;6149;52.418;13.668;2023-03-03T06:20:23;101842.44;;;-0.56;100.00
12172;BME280;6149;52.418;13.668;2023-03-03T06:22:50;101845.00;;;-0.57;100.00
12172;BME280;6149;52.418;13.668;2023-03-03T06:25:17;101837.31;;;-0.50;100.00
12172;BME280;6149;52.418;13.668;2023-03-03T06:27:45;101854.66;;;-0.49;100.00
12172;BME280;6149;52.418;13.668;2023-03-03T06:30:12;101856.31;;;-0.54;100.00
12172;BME280;6149;52.418;13.668;2023-03-03T06:32:39;101862.38;;;-0.55;100.00
12172;BME280;6149;52.418;13.668;2023-03-03T06:35:06;101859.78;;;-0.53;100.00
12172;BME280;6149;52.418;13.668;2023-03-03T06:37:33;101863.22;;;-0.54;100.00
12172;BME280;6149;52.418;13.668;2023-03-03T06:40:00;101866.66;;;-0.57;100.00
12172;BME280;6149;52.418;13.668;2023-03-03T06:42:27;101861.38;;;-0.63;100.00
12172;BME280;6149;52.418;13.668;2023-03-03T06:44:55;101868.31;;;-0.62;100.00
12172;BME280;6149;52.418;13.668;2023-03-03T06:47:21;101871.78;;;-0.61;100.00
12172;BME280;6149;52.418;13.668;2023-03-03T06:49:48;101874.41;;;-0.60;100.00
12172;BME280;6149;52.418;13.668;2023-03-03T06:52:19;101880.50;;;-0.58;100.00
12172;BME280;6149;52.418;13.668;2023-03-03T06:54:52;101885.59;;;-0.64;100.00
12172;BME280;6149;52.418;13.668;2023-03-03T06:57:25;101883.03;;;-0.62;100.00
12172;BME280;6149;52.418;13.668;2023-03-03T06:59:56;101892.53;;;-0.64;100.00
12172;BME280;6149;52.418;13.668;2023-03-03T07:02:25;101889.03;;;-0.68;100.00
12172;BME280;6149;52.418;13.668;2023-03-03T07:04:52;101895.09;;;-0.68;100.00
12172;BME280;6149;52.418;13.668;2023-03-03T07:07:23;101897.84;;;-0.55;100.00
12172;BME280;6149;52.418;13.668;2023-03-03T07:09:53;101891.69;;;-0.63;100.00
12172;BME280;6149;52.418;13.668;2023-03-03T07:12:22;101893.41;;;-0.64;100.00
12172;BME280;6149;52.418;13.668;2023-03-03T07:15:10;101893.44;;;-0.61;100.00
12172;BME280;6149;52.418;13.668;2023-03-03T07:17:43;101900.28;;;-0.66;100.00
12172;BME280;6149;52.418;13.668;2023-03-03T07:20:18;101903.78;;;-0.65;100.00
12172;BME280;6149;52.418;13.668;2023-03-03T07:22:46;101902.03;;;-0.65;100.00
12172;BME280;6149;52.418;13.668;2023-03-03T07:25:20;101902.06;;;-0.63;100.00
12172;BME280;6149;52.418;13.668;2023-03-03T07:27:47;101903.81;;;-0.62;100.00
12172;BME280;6149;52.418;13.668;2023-03-03T07:30:24;101904.72;;;-0.60;100.00
12172;BME280;6149;52.418;13.668;2023-03-03T07:32:52;101904.75;;;-0.57;100.00
12172;BME280;6149;52.418;13.668;2023-03-03T07:35:37;101911.72;;;-0.55;100.00
12172;BME280;6149;52.418;13.668;2023-03-03T07:38:16;101913.50;;;-0.51;100.00
12172;BME280;6149;52.418;13.668;2023-03-03T07:40:50;101913.50;;;-0.51;100.00
12172;BME280;6149;52.418;13.668;2023-03-03T07:43:29;101919.47;;;-0.56;100.00
12172;BME280;6149;52.418;13.668;2023-03-03T07:46:20;101916.00;;;-0.57;100.00
12172;BME280;6149;52.418;13.668;2023-03-03T07:48:49;101924.69;;;-0.55;100.00
12172;BME280;6149;52.418;13.668;2023-03-03T07:51:20;101920.44;;;-0.50;100.00
12172;BME280;6149;52.418;13.668;2023-03-03T07:53:50;101921.25;;;-0.54;100.00
12172;BME280;6149;52.418;13.668;2023-03-03T07:56:26;101930.78;;;-0.54;100.00
12172;BME280;6149;52.418;13.668;2023-03-03T07:58:54;101927.41;;;-0.47;100.00
12172;BME280;6149;52.418;13.668;2023-03-03T08:01:37;101925.63;;;-0.51;100.00
12172;BME280;6149;52.418;13.668;2023-03-03T08:04:16;101929.19;;;-0.45;100.00
12172;BME280;6149;52.418;13.668;2023-03-03T08:06:55;101931.72;;;-0.48;100.00
12172;BME280;6149;52.418;13.668;2023-03-03T08:09:41;101930.97;;;-0.41;100.00
12172;BME280;6149;52.418;13.668;2023-03-03T08:12:18;101929.16;;;-0.46;100.00
12172;BME280;6149;52.418;13.668;2023-03-03T08:14:53;101920.56;;;-0.41;100.00
12172;BME280;6149;52.418;13.668;2023-03-03T08:17:23;101923.22;;;-0.38;100.00
12172;BME280;6149;52.418;13.668;2023-03-03T08:19:52;101912.81;;;-0.39;100.00
12172;BME280;6149;52.418;13.668;2023-03-03T08:22:26;101918.91;;;-0.34;100.00
12172;BME280;6149;52.418;13.668;2023-03-03T08:24:55;101921.56;;;-0.28;100.00
12172;BME280;6149;52.418;13.668;2023-03-03T08:27:22;101920.72;;;-0.27;100.00
12172;BME280;6149;52.418;13.668;2023-03-03T08:29:48;101925.84;;;-0.31;100.00
12172;BME280;6149;52.418;13.668;2023-03-03T08:32:15;101923.28;;;-0.30;100.00
12172;BME280;6149;52.418;13.668;2023-03-03T08:34:43;101925.97;;;-0.24;100.00
12172;BME280;6149;52.418;13.668;2023-03-03T08:37:09;101925.09;;;-0.23;100.00
12172;BME280;6149;52.418;13.668;2023-03-03T08:39:36;101923.41;;;-0.21;100.00
12172;BME280;6149;52.418;13.668;2023-03-03T08:42:03;101929.56;;;-0.13;100.00
12172;BME280;6149;52.418;13.668;2023-03-03T08:44:29;101930.44;;;-0.12;100.00
12172;BME280;6149;52.418;13.668;2023-03-03T08:46:56;101932.22;;;-0.10;100.00
12172;BME280;6149;52.418;13.668;2023-03-03T08:49:22;101931.19;;;-0.22;100.00
12172;BME280;6149;52.418;13.668;2023-03-03T08:51:50;101920.84;;;-0.18;100.00
12172;BME280;6149;52.418;13.668;2023-03-03T08:54:18;101931.28;;;-0.15;100.00
12172;BME280;6149;52.418;13.668;2023-03-03T08:56:45;101936.47;;;-0.15;100.00
12172;BME280;6149;52.418;13.668;2023-03-03T08:59:11;101937.38;;;-0.13;100.00
12172;BME280;6149;52.418;13.668;2023-03-03T09:01:38;101936.53;;;-0.10;100.00
12172;BME280;6149;52.418;13.668;2023-03-03T09:04:07;101946.06;;;-0.11;100.00
12172;BME280;6149;52.418;13.668;2023-03-03T09:06:34;101936.56;;;-0.07;100.00
12172;BME280;6149;52.418;13.668;2023-03-03T09:09:02;101934.00;;;-0.06;100.00
12172;BME280;6149;52.418;13.668;2023-03-03T09:11:29;101923.63;;;-0.03;100.00
12172;BME280;6149;52.418;13.668;2023-03-03T09:14:01;101929.66;;;-0.05;100.00
12172;BME280;6149;52.418;13.668;2023-03-03T09:16:37;101928.81;;;-0.04;100.00
12172;BME280;6149;52.418;13.668;2023-03-03T09:19:22;101928.81;;;-0.04;100.00
12172;BME280;6149;52.418;13.668;2023-03-03T09:21:51;101915.78;;;-0.06;100.00
12172;BME280;6149;52.418;13.668;2023-03-03T09:24:24;101916.72;;;-0.02;100.00
12172;BME280;6149;52.418;13.668;2023-03-03T09:26:52;101926.41;;;0.14;100.00
12172;BME280;6149;52.418;13.668;2023-03-03T09:29:24;101920.25;;;0.08;100.00
12172;BME280;6149;52.418;13.668;2023-03-03T09:31:53;101928.13;;;0.14;100.00
12172;BME280;6149;52.418;13.668;2023-03-03T09:34:23;101926.44;;;0.17;100.00
12172;BME280;6149;52.418;13.668;2023-03-03T09:36:52;101929.94;;;0.21;100.00
12172;BME280;6149;52.418;13.668;2023-03-03T09:39:22;101930.91;;;0.30;100.00
12172;BME280;6149;52.418;13.668;2023-03-03T09:42:19;101921.41;;;0.32;100.00
12172;BME280;6149;52.418;13.668;2023-03-03T09:45:34;101917.97;;;0.40;100.00
12172;BME280;6149;52.418;13.668;2023-03-03T09:48:41;101924.97;;;0.44;100.00
12172;BME280;6149;52.418;13.668;2023-03-03T09:51:25;101927.53;;;0.42;100.00
12172;BME280;6149;52.418;13.668;2023-03-03T09:54:26;101930.97;;;0.35;100.00
12172;BME280;6149;52.418;13.668;2023-03-03T09:57:07;101930.97;;;0.35;100.00
12172;BME280;6149;52.418;13.668;2023-03-03T10:02:59;101914.69;;;0.56;100.00
12172;BME280;6149;52.418;13.668;2023-03-03T10:05:40;101917.38;;;0.65;100.00
12172;BME280;6149;52.418;13.668;2023-03-03T10:08:27;101917.47;;;0.82;100.00
12172;BME280;6149;52.418;13.668;2023-03-03T10:11:12;101923.44;;;0.65;100.00
12172;BME280;6149;52.418;13.668;2023-03-03T10:13:52;101922.66;;;0.77;100.00
12172;BME280;6149;52.418;13.668;2023-03-03T10:16:48;101924.38;;;0.75;100.00
12172;BME280;6149;52.418;13.668;2023-03-03T10:19:35;101923.53;;;0.79;100.00
12172;BME280;6149;52.418;13.668;2023-03-03T10:22:18;101921.88;;;0.87;100.00
12172;BME280;6149;52.418;13.668;2023-03-03T10:25:01;101927.16;;;0.96;100.00
12172;BME280;6149;52.418;13.668;2023-03-03T10:27:42;101926.34;;;1.02;100.00
12172;BME280;6149;52.418;13.668;2023-03-03T10:30:22;101910.75;;;1.07;100.00
12172;BME280;6149;52.418;13.668;2023-03-03T10:32:57;101912.50;;;1.09;100.00
12172;BME280;6149;52.418;13.668;2023-03-03T10:35:44;101918.63;;;1.19;100.00
12172;BME280;6149;52.418;13.668;2023-03-03T10:38:31;101924.88;;;1.47;100.00
12172;BME280;6149;52.418;13.668;2023-03-03T10:44:19;101922.31;;;1.60;100.00
12172;BME280;6149;52.418;13.668;2023-03-03T10:47:04;101915.38;;;1.59;100.00
12172;BME280;6149;52.418;13.668;2023-03-03T10:49:49;101923.22;;;1.64;100.00
12172;BME280;6149;52.418;13.668;2023-03-03T10:52:29;101920.59;;;1.62;100.00
12172;BME280;6149;52.418;13.668;2023-03-03T10:55:18;101918.00;;;1.64;100.00
12172;BME280;6149;52.418;13.668;2023-03-03T10:58:01;101924.16;;;1.77;100.00
12172;BME280;6149;52.418;13.668;2023-03-03T11:00:37;101925.84;;;1.70;100.00
12172;BME280;6149;52.418;13.668;2023-03-03T11:03:38;101931.91;;;1.64;100.00
12172;BME280;6149;52.418;13.668;2023-03-03T11:06:16;101928.44;;;1.64;100.00
12172;BME280;6149;52.418;13.668;2023-03-03T11:08:49;101921.50;;;1.69;100.00
12172;BME280;6149;52.418;13.668;2023-03-03T11:11:24;101922.41;;;1.86;100.00
12172;BME280;6149;52.418;13.668;2023-03-03T11:14:02;101923.31;;;1.93;100.00
12172;BME280;6149;52.418;13.668;2023-03-03T11:16:43;101924.22;;;2.03;100.00
12172;BME280;6149;52.418;13.668;2023-03-03T11:19:35;101924.28;;;2.15;100.00
12172;BME280;6149;52.418;13.668;2023-03-03T11:22:19;101923.38;;;2.07;100.00
12172;BME280;6149;52.418;13.668;2023-03-03T11:25:00;101912.09;;;2.09;100.00
12172;BME280;6149;52.418;13.668;2023-03-03T11:27:57;101915.59;;;2.20;100.00
12172;BME280;6149;52.418;13.668;2023-03-03T11:30:46;101911.25;;;2.30;100.00
12172;BME280;6149;52.418;13.668;2023-03-03T11:33:22;101911.28;;;2.39;100.00
12172;BME280;6149;52.418;13.668;2023-03-03T11:36:00;101912.13;;;2.37;100.00
12172;BME280;6149;52.418;13.668;2023-03-03T11:38:45;101918.22;;;2.42;100.00
12172;BME280;6149;52.418;13.668;2023-03-03T11:41:28;101909.53;;;2.46;100.00
12172;BME280;6149;52.418;13.668;2023-03-03T11:44:02;101911.31;;;2.57;100.00
12172;BME280;6149;52.418;13.668;2023-03-03T11:46:38;101913.91;;;2.51;100.00
12172;BME280;6149;52.418;13.668;2023-03-03T11:49:11;101910.44;;;2.58;100.00
12172;BME280;6149;52.418;13.668;2023-03-03T11:51:48;101903.47;;;2.77;100.00
12172;BME280;6149;52.418;13.668;2023-03-03T11:54:23;101899.97;;;2.81;100.00
12172;BME280;6149;52.418;13.668;2023-03-03T11:56:57;101899.09;;;2.88;100.00
12172;BME280;6149;52.418;13.668;2023-03-03T12:00:04;101889.53;;;2.93;100.00
12172;BME280;6149;52.418;13.668;2023-03-03T12:05:49;101888.63;;;3.11;100.00
12172;BME280;6149;52.418;13.668;2023-03-03T12:08:37;101886.00;;;3.19;100.00
12172;BME280;6149;52.418;13.668;2023-03-03T12:11:17;101878.13;;;3.26;100.00
12172;BME280;6149;52.418;13.668;2023-03-03T12:13:55;101878.13;;;3.26;100.00
12172;BME280;6149;52.418;13.668;2023-03-03T12:16:36;101872.91;;;3.31;100.00
12172;BME280;6149;52.418;13.668;2023-03-03T12:22:31;101861.53;;;3.36;100.00
12172;BME280;6149;52.418;13.668;2023-03-03T12:25:19;101858.91;;;3.35;100.00
12172;BME280;6149;52.418;13.668;2023-03-03T12:27:53;101859.78;;;3.35;100.00
12172;BME280;6149;52.418;13.668;2023-03-03T12:30:41;101863.25;;;3.44;100.00
12172;BME280;6149;52.418;13.668;2023-03-03T12:33:22;101851.06;;;3.38;100.00
12172;BME280;6149;52.418;13.668;2023-03-03T12:36:04;101840.56;;;3.52;100.00
12172;BME280;6149;52.418;13.668;2023-03-03T12:38:48;101832.72;;;3.53;100.00
12172;BME280;6149;52.418;13.668;2023-03-03T12:41:22;101835.22;;;3.75;100.00
12172;BME280;6149;52.418;13.668;2023-03-03T12:43:57;101841.31;;;3.75;100.00
12172;BME280;6149;52.418;13.668;2023-03-03T12:46:34;101836.13;;;3.71;100.00
12172;BME280;6149;52.418;13.668;2023-03-03T12:49:08;101825.69;;;3.66;100.00
12172;BME280;6149;52.418;13.668;2023-03-03T12:51:45;101831.78;;;3.69;100.00
12172;BME280;6149;52.418;13.668;2023-03-03T12:54:30;101827.38;;;3.72;100.00
12172;BME280;6149;52.418;13.668;2023-03-03T12:57:11;101826.56;;;3.69;100.00
12172;BME280;6149;52.418;13.668;2023-03-03T12:59:50;101823.94;;;3.65;100.00
12172;BME280;6149;52.418;13.668;2023-03-03T13:02:40;101823.94;;;3.65;100.00
12172;BME280;6149;52.418;13.668;2023-03-03T13:05:19;101827.38;;;3.72;100.00
12172;BME280;6149;52.418;13.668;2023-03-03T13:07:54;101819.53;;;3.72;100.00
12172;BME280;6149;52.418;13.668;2023-03-03T13:10:34;101816.97;;;3.64;100.00
12172;BME280;6149;52.418;13.668;2023-03-03T13:13:09;101812.66;;;3.55;100.00
12172;BME280;6149;52.418;13.668;2023-03-03T13:15:43;101810.03;;;3.60;100.00
12172;BME280;6149;52.418;13.668;2023-03-03T13:18:26;101811.75;;;3.67;100.00
12172;BME280;6149;52.418;13.668;2023-03-03T13:21:01;101810.00;;;3.66;100.00
12172;BME280;6149;52.418;13.668;2023-03-03T13:23:40;101803.84;;;3.72;100.00
12172;BME280;6149;52.418;13.668;2023-03-03T13:26:16;101801.19;;;3.78;100.00